createdAt,value
2022-08-27T00:02:00.420Z,4.18
2022-08-27T00:04:02.913Z,4.40
2022-08-27T00:06:05.269Z,3.95
2022-08-27T00:08:12.815Z,3.42
2022-08-27T00:10:27.724Z,3.70
2022-08-27T00:12:30.477Z,4.18
2022-08-27T00:14:33.290Z,3.65
2022-08-27T00:16:35.465Z,3.22
2022-08-27T00:18:40.227Z,3.45
2022-08-27T00:20:44.493Z,3.25
2022-08-27T00:22:46.490Z,3.55
2022-08-27T00:24:55.732Z,3.08
2022-08-27T00:26:57.740Z,3.40
2022-08-27T00:28:59.795Z,3.63
2022-08-27T00:31:02.432Z,3.50
2022-08-27T00:33:04.920Z,3.53
2022-08-27T00:35:08.730Z,3.33
2022-08-27T00:37:10.907Z,3.75
2022-08-27T00:39:12.915Z,3.95
2022-08-27T00:41:17.150Z,3.88
2022-08-27T00:43:23.868Z,4.07
2022-08-27T00:45:26.933Z,3.80
2022-08-27T00:47:33.813Z,3.70
2022-08-27T00:49:47.073Z,3.35
2022-08-27T00:52:12.181Z,3.38
2022-08-27T00:54:18.628Z,3.72
2022-08-27T00:56:28.423Z,3.60
2022-08-27T00:58:39.653Z,3.28
2022-08-27T01:00:41.949Z,3.92
2022-08-27T01:02:46.807Z,3.17
2022-08-27T01:05:09.968Z,3.72
2022-08-27T01:07:14.868Z,3.28
2022-08-27T01:09:18.599Z,3.55
2022-08-27T01:11:21.716Z,3.60
2022-08-27T01:13:40.814Z,3.30
2022-08-27T01:15:48.896Z,3.38
2022-08-27T01:17:51.593Z,3.40
2022-08-27T01:19:58.855Z,3.47
2022-08-27T01:22:09.700Z,3.03
2022-08-27T01:24:40.337Z,3.80
2022-08-27T01:26:42.349Z,3.23
2022-08-27T01:28:44.950Z,2.67
2022-08-27T01:30:47.253Z,3.00
2022-08-27T01:32:50.411Z,3.20
2022-08-27T01:35:06.752Z,2.83
2022-08-27T01:37:09.393Z,3.22
2022-08-27T01:39:12.990Z,2.60
2022-08-27T01:41:15.239Z,2.83
2022-08-27T01:43:17.637Z,3.78
2022-08-27T01:45:25.114Z,3.10
2022-08-27T01:47:31.452Z,3.13
2022-08-27T01:49:33.670Z,3.10
2022-08-27T01:51:35.893Z,3.13
2022-08-27T01:53:37.894Z,3.60
2022-08-27T01:55:40.944Z,3.65
2022-08-27T01:57:49.603Z,2.78
2022-08-27T01:59:51.600Z,2.83
2022-08-27T02:01:55.975Z,3.22
2022-08-27T02:03:58.169Z,3.22
2022-08-27T02:06:07.433Z,3.08
2022-08-27T02:08:09.617Z,3.78
2022-08-27T02:10:15.904Z,3.42
2022-08-27T02:12:17.838Z,4.05
2022-08-27T02:14:20.657Z,3.53
2022-08-27T02:16:22.734Z,3.33
2022-08-27T02:18:24.864Z,3.15
2022-08-27T02:20:27.952Z,3.47
2022-08-27T02:22:31.631Z,3.30
2022-08-27T02:24:33.694Z,3.22
2022-08-27T02:26:35.479Z,3.63
2022-08-27T02:28:37.444Z,3.55
2022-08-27T02:30:39.350Z,3.42
2022-08-27T02:32:41.203Z,3.03
2022-08-27T02:34:43.048Z,3.15
2022-08-27T02:36:44.924Z,3.53
2022-08-27T02:38:46.973Z,3.20
2022-08-27T02:40:48.777Z,2.78
2022-08-27T02:42:50.964Z,3.45
2022-08-27T02:44:55.081Z,3.25
2022-08-27T02:46:59.549Z,3.13
2022-08-27T02:49:01.386Z,3.33
2022-08-27T02:51:06.118Z,3.75
2022-08-27T02:53:09.354Z,3.10
2022-08-27T02:55:17.167Z,3.58
2022-08-27T02:57:19.573Z,2.83
2022-08-27T02:59:22.579Z,3.30
2022-08-27T03:01:24.625Z,3.50
2022-08-27T03:03:26.466Z,3.05
2022-08-27T03:05:28.694Z,3.42
2022-08-27T03:07:30.644Z,3.55
2022-08-27T03:09:32.859Z,3.25
2022-08-27T03:11:34.740Z,3.40
2022-08-27T03:13:38.264Z,3.08
2022-08-27T03:15:40.040Z,3.42
2022-08-27T03:18:01.323Z,3.75
2022-08-27T03:20:04.743Z,3.70
2022-08-27T03:22:07.060Z,3.67
2022-08-27T03:24:11.511Z,2.97
2022-08-27T03:26:13.747Z,3.65
2022-08-27T03:28:22.708Z,4.15
2022-08-27T03:30:25.418Z,3.13
2022-08-27T03:32:27.799Z,3.97
2022-08-27T03:34:30.088Z,3.88
2022-08-27T03:36:32.202Z,3.05
2022-08-27T03:38:34.573Z,3.85
2022-08-27T03:40:36.562Z,4.10
2022-08-27T03:42:39.212Z,3.70
2022-08-27T03:44:41.122Z,3.33
2022-08-27T03:46:44.797Z,3.13
2022-08-27T03:48:47.762Z,3.22
2022-08-27T03:50:54.097Z,3.95
2022-08-27T03:52:56.210Z,3.72
2022-08-27T03:54:59.217Z,3.72
2022-08-27T03:57:01.095Z,3.88
2022-08-27T03:59:03.122Z,3.28
2022-08-27T04:01:06.309Z,3.35
2022-08-27T04:03:08.622Z,2.90
2022-08-27T04:05:17.901Z,3.10
2022-08-27T04:07:20.162Z,3.00
2022-08-27T04:09:21.978Z,3.10
2022-08-27T04:11:24.217Z,3.20
2022-08-27T04:13:26.089Z,3.35
2022-08-27T04:15:28.029Z,3.13
2022-08-27T04:17:30.052Z,2.97
2022-08-27T04:19:34.277Z,3.53
2022-08-27T04:21:36.777Z,3.25
2022-08-27T04:23:40.892Z,3.15
2022-08-27T04:25:44.708Z,3.40
2022-08-27T04:27:47.254Z,2.85
2022-08-27T04:29:49.676Z,3.00
2022-08-27T04:31:53.816Z,3.08
2022-08-27T04:33:55.848Z,3.17
2022-08-27T04:36:07.638Z,3.20
2022-08-27T04:38:09.723Z,3.15
2022-08-27T04:40:12.222Z,3.10
2022-08-27T04:42:14.104Z,3.15
2022-08-27T04:44:16.504Z,3.03
2022-08-27T04:46:23.625Z,3.40
2022-08-27T04:48:25.973Z,2.67
2022-08-27T04:50:27.927Z,3.50
2022-08-27T04:52:30.088Z,3.45
2022-08-27T04:54:33.332Z,3.25
2022-08-27T04:56:36.687Z,3.35
2022-08-27T04:58:42.831Z,2.78
2022-08-27T05:00:48.678Z,3.10
2022-08-27T05:02:50.827Z,3.17
2022-08-27T05:04:52.686Z,3.15
2022-08-27T05:06:54.858Z,2.60
2022-08-27T05:08:57.566Z,3.00
2022-08-27T05:11:00.630Z,2.65
2022-08-27T05:13:02.511Z,2.92
2022-08-27T05:15:14.243Z,2.75
2022-08-27T05:17:16.045Z,3.40
2022-08-27T05:19:17.861Z,2.78
2022-08-27T05:21:24.698Z,3.13
2022-08-27T05:23:30.319Z,2.83
2022-08-27T05:25:32.430Z,2.85
2022-08-27T05:27:34.410Z,3.00
2022-08-27T05:29:36.345Z,2.83
2022-08-27T05:31:40.431Z,2.80
2022-08-27T05:33:43.660Z,2.90
2022-08-27T05:35:54.439Z,2.80
2022-08-27T05:39:57.974Z,2.92
2022-08-27T05:41:59.832Z,3.22
2022-08-27T05:44:30.293Z,2.85
2022-08-27T05:46:31.422Z,2.70
2022-08-27T05:48:36.061Z,3.05
2022-08-27T05:50:41.475Z,2.92
2022-08-27T05:52:43.154Z,2.63
2022-08-27T05:54:44.938Z,2.95
2022-08-27T05:56:47.481Z,3.53
2022-08-27T05:59:08.783Z,2.83
2022-08-27T06:01:10.931Z,2.78
2022-08-27T06:03:13.255Z,3.03
2022-08-27T06:05:15.018Z,3.35
2022-08-27T06:07:17.351Z,3.08
2022-08-27T06:09:22.619Z,3.20
2022-08-27T06:11:24.537Z,3.10
2022-08-27T06:13:26.231Z,3.15
2022-08-27T06:15:27.872Z,3.42
2022-08-27T06:17:29.567Z,3.40
2022-08-27T06:19:31.323Z,3.70
2022-08-27T06:21:33.520Z,3.40
2022-08-27T06:23:36.238Z,3.45
2022-08-27T06:25:40.853Z,3.17
2022-08-27T06:27:42.485Z,3.95
2022-08-27T06:29:44.637Z,3.45
2022-08-27T06:31:46.325Z,3.50
2022-08-27T06:33:48.932Z,3.65
2022-08-27T06:35:50.587Z,3.38
2022-08-27T06:37:52.241Z,3.50
2022-08-27T06:39:54.021Z,3.67
2022-08-27T06:41:55.916Z,3.45
2022-08-27T06:43:58.475Z,3.28
2022-08-27T06:46:04.144Z,4.00
2022-08-27T06:48:07.717Z,4.90
2022-08-27T06:50:09.645Z,3.63
2022-08-27T06:52:11.391Z,3.50
2022-08-27T06:54:14.783Z,4.28
2022-08-27T06:56:17.476Z,3.55
2022-08-27T06:58:20.076Z,3.15
2022-08-27T07:00:21.710Z,3.53
2022-08-27T07:02:23.425Z,3.55
2022-08-27T07:04:32.210Z,3.55
2022-08-27T07:06:36.562Z,3.60
2022-08-27T07:08:39.660Z,3.58
2022-08-27T07:10:41.316Z,3.03
2022-08-27T07:12:43.493Z,4.43
2022-08-27T07:14:45.177Z,4.07
2022-08-27T07:16:48.208Z,3.90
2022-08-27T07:18:52.175Z,4.00
2022-08-27T07:20:54.708Z,3.90
2022-08-27T07:22:58.903Z,3.95
2022-08-27T07:25:00.596Z,3.58
2022-08-27T07:27:02.495Z,3.15
2022-08-27T07:29:07.324Z,4.03
2022-08-27T07:31:11.948Z,3.50
2022-08-27T07:33:15.039Z,3.65
2022-08-27T07:35:16.802Z,3.70
2022-08-27T07:37:18.477Z,3.92
2022-08-27T07:39:20.134Z,3.85
2022-08-27T07:41:23.286Z,3.83
2022-08-27T07:43:50.378Z,4.07
2022-08-27T07:46:02.061Z,3.90
2022-08-27T07:48:04.003Z,3.92
2022-08-27T07:50:06.342Z,3.88
2022-08-27T07:52:08.025Z,4.35
2022-08-27T07:54:09.708Z,4.03
2022-08-27T07:56:12.333Z,4.03
2022-08-27T07:58:18.103Z,3.95
2022-08-27T08:00:21.570Z,4.70
2022-08-27T08:02:23.403Z,4.53
2022-08-27T08:04:26.692Z,3.97
2022-08-27T08:06:28.443Z,4.75
2022-08-27T08:08:30.117Z,3.97
2022-08-27T08:10:35.379Z,4.82
2022-08-27T08:12:41.053Z,4.60
2022-08-27T08:14:42.815Z,4.18
2022-08-27T08:16:45.209Z,4.00
2022-08-27T08:18:46.991Z,4.63
2022-08-27T08:20:57.981Z,3.80
2022-08-27T08:23:00.520Z,3.92
2022-08-27T08:25:02.329Z,3.78
2022-08-27T08:27:07.361Z,3.60
2022-08-27T08:29:09.510Z,4.32
2022-08-27T08:31:16.597Z,4.05
2022-08-27T08:33:18.390Z,3.97
2022-08-27T08:35:20.844Z,4.55
2022-08-27T08:37:23.115Z,3.45
2022-08-27T08:39:24.925Z,3.75
2022-08-27T08:41:52.424Z,3.45
2022-08-27T08:43:56.359Z,3.50
2022-08-27T08:46:07.996Z,3.55
2022-08-27T08:48:18.054Z,3.28
2022-08-27T08:50:57.963Z,2.95
2022-08-27T08:53:10.202Z,3.20
2022-08-27T08:55:33.624Z,2.97
2022-08-27T08:57:51.818Z,2.40
2022-08-27T09:00:09.389Z,3.13
2022-08-27T09:02:14.617Z,1.88
2022-08-27T09:04:16.452Z,2.13
2022-08-27T09:06:32.310Z,2.22
2022-08-27T09:08:41.172Z,2.10
2022-08-27T09:11:03.771Z,2.45
2022-08-27T09:13:20.194Z,2.13
2022-08-27T09:15:29.749Z,2.47
2022-08-27T09:17:31.522Z,2.28
2022-08-27T09:19:35.096Z,2.67
2022-08-27T09:21:42.440Z,2.25
2022-08-27T09:24:22.970Z,2.38
2022-08-27T09:26:28.723Z,2.97
2022-08-27T09:28:49.413Z,2.17
2022-08-27T09:33:01.274Z,2.13
2022-08-27T09:35:17.147Z,1.70
2022-08-27T09:37:22.418Z,1.70
2022-08-27T09:39:49.274Z,1.95
2022-08-27T09:41:51.989Z,2.20
2022-08-27T09:44:08.542Z,1.77
2022-08-27T09:46:24.379Z,1.45
2022-08-27T09:48:33.781Z,1.60
2022-08-27T09:50:52.334Z,1.73
2022-08-27T09:52:59.165Z,1.88
2022-08-27T09:55:02.934Z,1.50
2022-08-27T09:57:09.388Z,1.60
2022-08-27T09:59:25.610Z,1.50
2022-08-27T10:01:30.686Z,2.20
2022-08-27T10:03:33.770Z,1.83
2022-08-27T10:05:44.862Z,1.58
2022-08-27T10:07:52.687Z,1.30
2022-08-27T10:10:08.437Z,1.30
2022-08-27T10:12:28.469Z,1.00
2022-08-27T10:14:42.583Z,1.30
2022-08-27T10:16:55.708Z,1.95
2022-08-27T10:19:16.070Z,1.60
2022-08-27T10:21:35.530Z,1.85
2022-08-27T10:23:59.082Z,1.30
2022-08-27T10:26:34.078Z,2.20
2022-08-27T10:28:47.959Z,1.90
2022-08-27T10:31:20.670Z,1.23
2022-08-27T10:33:37.759Z,1.67
2022-08-27T10:36:01.184Z,5.10
2022-08-27T10:38:21.781Z,1.63
2022-08-27T10:40:32.380Z,1.13
2022-08-27T10:45:30.883Z,1.27
2022-08-27T10:47:48.335Z,1.27
2022-08-27T10:49:58.718Z,1.20
2022-08-27T10:52:18.885Z,1.55
2022-08-27T10:54:38.340Z,1.13
2022-08-27T10:57:14.488Z,0.95
2022-08-27T10:59:24.333Z,0.85
2022-08-27T11:01:26.055Z,0.90
2022-08-27T11:03:40.697Z,1.15
2022-08-27T11:05:48.372Z,0.90
2022-08-27T11:07:56.296Z,1.23
2022-08-27T11:10:02.243Z,1.00
2022-08-27T11:12:14.414Z,0.80
2022-08-27T11:14:28.567Z,0.75
2022-08-27T11:16:44.759Z,0.95
2022-08-27T11:19:00.442Z,0.90
2022-08-27T11:21:25.220Z,0.63
2022-08-27T11:23:40.644Z,0.80
2022-08-27T11:25:54.118Z,0.70
2022-08-27T11:27:58.148Z,0.50
2022-08-27T11:30:19.473Z,0.75
2022-08-27T11:32:46.844Z,0.70
2022-08-27T11:34:51.593Z,0.68
2022-08-27T11:37:00.239Z,1.00
2022-08-27T11:39:10.606Z,0.70
2022-08-27T11:41:45.100Z,0.60
2022-08-27T11:43:48.028Z,0.80
2022-08-27T11:46:02.892Z,0.68
2022-08-27T11:48:23.440Z,0.82
2022-08-27T11:50:27.419Z,0.90
2022-08-27T11:52:35.291Z,0.90
2022-08-27T11:54:50.411Z,1.00
2022-08-27T11:56:52.360Z,0.70
2022-08-27T11:58:54.067Z,0.80
2022-08-27T12:00:59.904Z,1.02
2022-08-27T12:03:22.540Z,1.33
2022-08-27T12:05:33.131Z,0.93
2022-08-27T12:09:56.218Z,0.88
2022-08-27T12:12:16.195Z,0.70
2022-08-27T12:14:36.360Z,0.70
2022-08-27T12:17:08.508Z,0.90
2022-08-27T12:19:31.736Z,0.63
2022-08-27T12:21:49.522Z,1.05
2022-08-27T12:23:59.886Z,0.80
2022-08-27T12:26:15.602Z,0.88
2022-08-27T12:28:26.726Z,1.05
2022-08-27T12:30:35.596Z,0.90
2022-08-27T12:32:41.497Z,0.77
2022-08-27T12:34:54.545Z,0.80
2022-08-27T12:37:01.975Z,0.82
2022-08-27T12:39:16.684Z,0.95
2022-08-27T12:41:44.401Z,0.80
2022-08-27T12:43:46.545Z,0.70
2022-08-27T12:46:01.077Z,0.82
2022-08-27T12:48:09.073Z,1.08
2022-08-27T12:50:13.307Z,0.70
2022-08-27T12:52:18.077Z,0.80
2022-08-27T12:54:28.888Z,0.88
2022-08-27T12:56:51.436Z,0.60
2022-08-27T12:59:11.659Z,1.00
2022-08-27T13:01:44.496Z,0.77
2022-08-27T13:03:56.069Z,0.93
2022-08-27T13:06:00.564Z,0.73
2022-08-27T13:08:03.532Z,0.70
2022-08-27T13:10:31.378Z,0.60
2022-08-27T13:12:33.040Z,0.70
2022-08-27T13:14:42.596Z,0.60
2022-08-27T13:17:05.796Z,0.70
2022-08-27T13:19:08.364Z,0.70
2022-08-27T13:21:33.144Z,0.50
2022-08-27T13:23:35.505Z,0.90
2022-08-27T13:25:37.391Z,0.70
2022-08-27T13:27:39.638Z,0.70
2022-08-27T13:29:42.822Z,0.80
2022-08-27T13:31:45.468Z,0.70
2022-08-27T13:33:47.848Z,0.50
2022-08-27T13:35:50.992Z,0.43
2022-08-27T13:37:54.769Z,0.40
2022-08-27T13:39:57.504Z,0.60
2022-08-27T13:42:02.704Z,0.60
2022-08-27T13:44:16.640Z,0.70
2022-08-27T13:46:22.843Z,1.00
2022-08-27T13:48:25.146Z,1.00
2022-08-27T13:50:31.871Z,0.90
2022-08-27T13:52:58.060Z,0.90
2022-08-27T13:55:22.693Z,1.42
2022-08-27T13:57:31.595Z,0.80
2022-08-27T13:59:33.366Z,0.63
2022-08-27T14:01:35.261Z,0.60
2022-08-27T14:03:49.536Z,0.60
2022-08-27T14:05:51.842Z,1.10
2022-08-27T14:07:59.912Z,0.82
2022-08-27T14:10:25.511Z,1.25
2022-08-27T14:12:32.853Z,1.20
2022-08-27T14:14:42.278Z,0.77
2022-08-27T14:16:44.150Z,1.05
2022-08-27T14:19:03.901Z,0.50
2022-08-27T14:21:05.773Z,0.63
2022-08-27T14:23:07.514Z,0.73
2022-08-27T14:25:21.543Z,0.80
2022-08-27T14:27:24.431Z,0.88
2022-08-27T14:29:27.898Z,0.80
2022-08-27T14:31:29.703Z,0.60
2022-08-27T14:33:31.507Z,6.35
2022-08-27T14:35:35.969Z,4.10
2022-08-27T14:37:42.718Z,2.83
2022-08-27T14:39:44.971Z,3.28
2022-08-27T14:41:48.430Z,1.20
2022-08-27T14:43:52.287Z,0.82
2022-08-27T14:45:54.463Z,1.98
2022-08-27T14:48:01.956Z,1.10
2022-08-27T14:50:05.396Z,1.10
2022-08-27T14:52:08.694Z,0.60
2022-08-27T14:54:10.512Z,0.40
2022-08-27T14:56:12.250Z,0.60
2022-08-27T14:58:14.847Z,0.80
2022-08-27T15:00:16.751Z,1.00
2022-08-27T15:02:21.232Z,0.57
2022-08-27T15:04:25.162Z,0.60
2022-08-27T15:06:29.393Z,0.75
2022-08-27T15:08:32.242Z,0.50
2022-08-27T15:10:34.142Z,0.60
2022-08-27T15:12:36.487Z,0.68
2022-08-27T15:14:39.247Z,0.88
2022-08-27T15:16:43.366Z,0.65
2022-08-27T15:18:59.307Z,0.63
2022-08-27T15:21:03.065Z,1.20
2022-08-27T15:23:04.853Z,0.80
2022-08-27T15:25:22.017Z,1.10
2022-08-27T15:27:32.119Z,0.88
2022-08-27T15:29:41.011Z,0.52
2022-08-27T15:31:43.543Z,0.50
2022-08-27T15:33:45.738Z,0.60
2022-08-27T15:35:47.403Z,0.52
2022-08-27T15:37:49.546Z,0.70
2022-08-27T15:39:51.458Z,0.70
2022-08-27T15:42:08.624Z,1.50
2022-08-27T15:44:10.507Z,0.90
2022-08-27T15:46:14.778Z,1.02
2022-08-27T15:48:16.514Z,0.80
2022-08-27T15:50:18.299Z,1.00
2022-08-27T15:52:21.952Z,1.60
2022-08-27T15:54:24.223Z,0.80
2022-08-27T15:56:28.628Z,1.30
2022-08-27T15:58:32.999Z,0.90
2022-08-27T16:00:36.162Z,0.88
2022-08-27T16:02:37.889Z,1.00
2022-08-27T16:04:39.616Z,0.60
2022-08-27T16:06:41.372Z,1.33
2022-08-27T16:08:43.305Z,0.93
2022-08-27T16:10:45.060Z,1.00
2022-08-27T16:12:46.804Z,0.70
2022-08-27T16:14:48.734Z,0.43
2022-08-27T16:16:50.584Z,0.80
2022-08-27T16:18:52.536Z,1.17
2022-08-27T16:20:56.530Z,0.60
2022-08-27T16:22:58.698Z,0.93
2022-08-27T16:25:01.293Z,0.63
2022-08-27T16:27:03.109Z,0.60
2022-08-27T16:29:06.165Z,0.63
2022-08-27T16:31:10.422Z,0.77
2022-08-27T16:33:14.603Z,1.10
2022-08-27T16:35:18.748Z,0.80
2022-08-27T16:37:20.828Z,1.13
2022-08-27T16:39:23.527Z,1.05
2022-08-27T16:41:25.263Z,0.75
2022-08-27T16:43:28.168Z,0.70
2022-08-27T16:45:30.539Z,0.60
2022-08-27T16:47:32.252Z,0.55
2022-08-27T16:49:52.526Z,0.90
2022-08-27T16:51:55.390Z,1.10
2022-08-27T16:53:57.414Z,0.60
2022-08-27T16:56:00.291Z,0.80
2022-08-27T16:58:02.242Z,0.80
2022-08-27T17:00:06.236Z,1.50
2022-08-27T17:02:20.017Z,1.33
2022-08-27T17:04:30.274Z,1.10
2022-08-27T17:06:33.112Z,0.80
2022-08-27T17:08:47.609Z,0.80
2022-08-27T17:10:52.398Z,0.93
2022-08-27T17:12:54.351Z,0.60
2022-08-27T17:15:00.481Z,0.90
2022-08-27T17:17:02.155Z,1.02
2022-08-27T17:19:05.921Z,0.90
2022-08-27T17:21:07.785Z,1.00
2022-08-27T17:23:18.888Z,0.70
2022-08-27T17:25:20.755Z,1.13
2022-08-27T17:27:31.042Z,0.70
2022-08-27T17:29:32.781Z,0.90
2022-08-27T17:31:37.284Z,1.88
2022-08-27T17:33:47.820Z,1.08
2022-08-27T17:37:51.119Z,1.40
2022-08-27T17:39:53.371Z,1.15
2022-08-27T17:41:56.156Z,0.93
2022-08-27T17:44:01.673Z,0.80
2022-08-27T17:46:04.163Z,1.38
2022-08-27T17:48:06.012Z,0.70
2022-08-27T17:50:16.954Z,0.93
2022-08-27T17:52:18.726Z,0.90
2022-08-27T17:54:54.435Z,1.13
2022-08-27T17:56:56.540Z,0.82
2022-08-27T17:58:58.333Z,0.95
2022-08-27T18:01:00.253Z,1.10
2022-08-27T18:03:04.346Z,1.23
2022-08-27T18:05:15.351Z,1.02
2022-08-27T18:07:17.829Z,1.27
2022-08-27T18:09:19.516Z,1.50
2022-08-27T18:11:21.781Z,1.38
2022-08-27T18:13:23.841Z,1.40
2022-08-27T18:15:28.487Z,1.30
2022-08-27T18:17:31.204Z,0.98
2022-08-27T18:19:33.435Z,1.65
2022-08-27T18:21:46.664Z,1.70
2022-08-27T18:23:49.034Z,1.67
2022-08-27T18:25:51.739Z,1.45
2022-08-27T18:27:57.307Z,1.40
2022-08-27T18:29:59.457Z,1.42
2022-08-27T18:32:01.142Z,1.30
2022-08-27T18:34:03.036Z,1.00
2022-08-27T18:36:06.683Z,1.10
2022-08-27T18:38:09.713Z,1.75
2022-08-27T18:40:14.252Z,1.13
2022-08-27T18:42:18.004Z,1.10
2022-08-27T18:44:20.288Z,1.30
2022-08-27T18:46:23.314Z,1.55
2022-08-27T18:48:25.504Z,1.23
2022-08-27T18:50:28.023Z,1.77
2022-08-27T18:52:30.150Z,1.20
2022-08-27T18:54:32.420Z,1.20
2022-08-27T18:56:34.535Z,1.65
2022-08-27T18:58:39.018Z,1.63
2022-08-27T19:00:48.622Z,1.55
2022-08-27T19:02:53.009Z,1.50
2022-08-27T19:04:55.490Z,1.05
2022-08-27T19:06:57.443Z,1.40
2022-08-27T19:08:59.639Z,1.45
2022-08-27T19:11:02.981Z,2.00
2022-08-27T19:13:05.139Z,1.52
2022-08-27T19:15:15.412Z,2.10
2022-08-27T19:17:28.100Z,2.20
2022-08-27T19:19:30.183Z,1.35
2022-08-27T19:21:32.270Z,1.65
2022-08-27T19:23:35.801Z,0.80
2022-08-27T19:25:38.002Z,0.90
2022-08-27T19:27:40.151Z,1.13
2022-08-27T19:29:42.131Z,1.30
2022-08-27T19:31:44.318Z,1.30
2022-08-27T19:33:46.458Z,1.27
2022-08-27T19:35:48.687Z,1.42
2022-08-27T19:37:52.981Z,1.30
2022-08-27T19:39:55.869Z,1.23
2022-08-27T19:41:58.227Z,1.48
2022-08-27T19:44:00.696Z,1.08
2022-08-27T19:46:04.926Z,1.15
2022-08-27T19:48:09.797Z,1.00
2022-08-27T19:50:15.720Z,1.30
2022-08-27T19:52:18.035Z,0.98
2022-08-27T19:54:21.063Z,1.08
2022-08-27T19:56:23.269Z,1.00
2022-08-27T19:58:25.324Z,0.82
2022-08-27T20:00:27.789Z,1.75
2022-08-27T20:02:29.917Z,0.80
2022-08-27T20:04:35.714Z,1.00
2022-08-27T20:06:41.930Z,0.98
2022-08-27T20:08:44.082Z,0.70
2022-08-27T20:10:47.809Z,0.80
2022-08-27T20:12:50.252Z,0.60
2022-08-27T20:14:52.336Z,0.77
2022-08-27T20:16:54.758Z,0.80
2022-08-27T20:19:00.268Z,0.70
2022-08-27T20:21:05.811Z,0.82
2022-08-27T20:23:09.453Z,0.90
2022-08-27T20:25:16.811Z,0.75
2022-08-27T20:27:18.795Z,0.70
2022-08-27T20:29:32.218Z,0.98
2022-08-27T20:31:35.481Z,0.75
2022-08-27T20:33:37.679Z,0.95
2022-08-27T20:35:40.174Z,0.77
2022-08-27T20:37:42.702Z,0.75
2022-08-27T20:39:44.961Z,0.77
2022-08-27T20:41:47.398Z,0.60
2022-08-27T20:43:50.816Z,0.90
2022-08-27T20:45:53.082Z,0.70
2022-08-27T20:47:58.300Z,0.90
2022-08-27T20:50:03.403Z,1.40
2022-08-27T20:52:08.609Z,0.98
2022-08-27T20:54:13.169Z,0.90
2022-08-27T20:56:15.521Z,1.17
2022-08-27T20:58:35.956Z,1.35
2022-08-27T21:00:43.001Z,0.90
2022-08-27T21:02:47.100Z,0.60
2022-08-27T21:04:49.221Z,0.90
2022-08-27T21:06:51.333Z,0.77
2022-08-27T21:08:53.550Z,1.00
2022-08-27T21:10:57.239Z,0.68
2022-08-27T21:13:02.301Z,0.60
2022-08-27T21:15:14.686Z,0.80
2022-08-27T21:17:16.797Z,1.30
2022-08-27T21:19:19.137Z,1.27
2022-08-27T21:21:21.204Z,0.95
2022-08-27T21:23:25.578Z,1.67
2022-08-27T21:25:28.188Z,1.48
2022-08-27T21:27:30.525Z,1.20
2022-08-27T21:29:32.389Z,0.90
2022-08-27T21:31:34.463Z,1.00
2022-08-27T21:33:39.516Z,1.13
2022-08-27T21:35:41.896Z,1.15
2022-08-27T21:37:44.060Z,1.13
2022-08-27T21:39:46.289Z,1.75
2022-08-27T21:41:48.565Z,1.40
2022-08-27T21:43:51.444Z,1.20
2022-08-27T21:45:56.114Z,1.40
2022-08-27T21:47:58.145Z,0.88
2022-08-27T21:49:59.953Z,1.30
2022-08-27T21:52:03.608Z,0.80
2022-08-27T21:54:05.374Z,1.08
2022-08-27T21:56:07.788Z,1.52
2022-08-27T21:58:09.615Z,1.52
2022-08-27T22:00:27.946Z,1.38
2022-08-27T22:02:39.876Z,1.20
2022-08-27T22:04:42.351Z,0.98
2022-08-27T22:06:44.125Z,0.80
2022-08-27T22:08:45.850Z,1.25
2022-08-27T22:10:52.678Z,1.20
2022-08-27T22:12:54.453Z,1.10
2022-08-27T22:15:01.817Z,1.38
2022-08-27T22:17:04.267Z,1.00
2022-08-27T22:19:05.970Z,1.00
2022-08-27T22:21:07.858Z,1.02
2022-08-27T22:23:12.186Z,1.10
2022-08-27T22:25:22.552Z,1.40
2022-08-27T22:27:24.273Z,1.30
2022-08-27T22:29:26.071Z,1.48
2022-08-27T22:31:27.850Z,1.30
2022-08-27T22:33:29.769Z,1.23
2022-08-27T22:35:32.002Z,1.35
2022-08-27T22:37:33.711Z,1.70
2022-08-27T22:39:35.700Z,1.13
2022-08-27T22:41:37.604Z,1.45
2022-08-27T22:43:43.666Z,0.90
2022-08-27T22:45:45.507Z,0.80
2022-08-27T22:47:47.824Z,0.98
2022-08-27T22:49:52.718Z,1.30
2022-08-27T22:51:55.123Z,0.85
2022-08-27T22:53:56.954Z,1.00
2022-08-27T22:55:59.789Z,0.80
2022-08-27T22:58:02.250Z,0.85
2022-08-27T23:00:14.285Z,0.70
2022-08-27T23:02:16.328Z,0.95
2022-08-27T23:04:18.666Z,0.80
2022-08-27T23:06:21.791Z,0.80
2022-08-27T23:08:23.696Z,0.90
2022-08-27T23:10:25.599Z,1.33
2022-08-27T23:12:27.362Z,1.20
2022-08-27T23:14:33.368Z,0.98
2022-08-27T23:16:35.304Z,0.98
2022-08-27T23:18:39.017Z,0.73
2022-08-27T23:20:40.926Z,0.70
2022-08-27T23:22:43.018Z,1.00
2022-08-27T23:25:07.252Z,0.90
2022-08-27T23:27:27.469Z,0.80
2022-08-27T23:29:29.419Z,0.90
2022-08-27T23:31:31.799Z,0.57
2022-08-27T23:33:33.557Z,0.70
2022-08-27T23:35:35.440Z,0.80
2022-08-27T23:37:37.198Z,1.00
2022-08-27T23:39:38.989Z,1.13
2022-08-27T23:41:41.307Z,0.90
2022-08-27T23:43:43.681Z,1.00
2022-08-27T23:45:45.512Z,0.80
2022-08-27T23:47:47.346Z,0.65
2022-08-27T23:49:49.106Z,0.80
2022-08-27T23:51:50.816Z,0.82
2022-08-27T23:53:52.511Z,0.95
2022-08-27T23:55:54.208Z,1.00
2022-08-27T23:57:57.876Z,0.77
2022-08-27T23:59:59.657Z,0.50
